Time;durP1;ratioP1;P1;durP2;ratioP2;P2;SDS_P1;SDS_P2;PMS_P1;PMS_P2;Temp;Humidity;BMP_temperature;BMP_pressure;BME280_temperature;BME280_humidity;BME280_pressure;Samples;Min_cycle;Max_cycle;Signal;HPM_P1;HPM_P2
2023/03/23 00:01:44;;;;;;;11.95;7.03;;;;;;;;;;5019248;28;20025;-56
2023/03/23 00:04:12;;;;;;;13.55;7.80;;;;;;;;;;5021143;28;20038;-57
2023/03/23 00:06:37;;;;;;;;;;;;;;;;;;5021596;28;20112;-61
2023/03/23 00:09:03;;;;;;;15.57;6.75;;;;;;;;;;5020413;28;19959;-62
2023/03/23 00:11:30;;;;;;;13.60;7.03;;;;;;;;;;5019605;28;20572;-57
2023/03/23 00:13:57;;;;;;;12.50;6.68;;;;;;;;;;5020341;28;20479;-60
2023/03/23 00:16:28;;;;;;;;;;;;;;;;;;5024638;28;20525;-59
2023/03/23 00:18:54;;;;;;;12.63;6.75;;;;;;;;;;5020150;28;20370;-60
2023/03/23 00:21:25;;;;;;;11.20;6.93;;;;;;;;;;5017429;28;20037;-60
2023/03/23 00:23:50;;;;;;;14.43;7.22;;;;;;;;;;5020043;28;20118;-59
2023/03/23 00:26:15;;;;;;;12.23;7.57;;;;;;;;;;5020309;28;20813;-60
2023/03/23 00:28:41;;;;;;;14.38;7.65;;;;;;;;;;5021181;28;20032;-54
2023/03/23 00:31:07;;;;;;;12.00;7.57;;;;;;;;;;5020596;28;20150;-57
2023/03/23 00:33:37;;;;;;;;;;;;;;;;;;5023752;28;20041;-58
2023/03/23 00:36:03;;;;;;;13.35;7.50;;;;;;;;;;5020389;28;19924;-57
2023/03/23 00:38:29;;;;;;;13.38;7.53;;;;;;;;;;5020541;28;20077;-58
2023/03/23 00:40:54;;;;;;;13.07;7.50;;;;;;;;;;5019545;28;20093;-60
2023/03/23 00:43:24;;;;;;;13.07;8.07;;;;;;;;;;5025867;28;20025;-57
2023/03/23 00:45:52;;;;;;;13.70;7.95;;;;;;;;;;5024388;28;20028;-59
2023/03/23 00:48:22;;;;;;;12.93;7.00;;;;;;;;;;5024315;28;20048;-56
2023/03/23 00:50:47;;;;;;;11.82;7.40;;;;;;;;;;5024043;28;20152;-54
2023/03/23 00:53:13;;;;;;;11.27;6.25;;;;;;;;;;5037334;28;20590;-57
2023/03/23 00:55:40;;;;;;;14.23;6.85;;;;;;;;;;5021378;28;20041;-59
2023/03/23 00:58:05;;;;;;;14.93;7.07;;;;;;;;;;5020526;28;20026;-58
2023/03/23 01:00:30;;;;;;;15.93;6.78;;;;;;;;;;5021932;28;20038;-59
2023/03/23 01:02:56;;;;;;;11.90;5.70;;;;;;;;;;5019510;28;20040;-61
2023/03/23 01:05:22;;;;;;;11.38;4.60;;;;;;;;;;5018392;28;20048;-60
2023/03/23 01:07:48;;;;;;;9.18;4.38;;;;;;;;;;5020121;28;20033;-55
2023/03/23 01:10:15;;;;;;;8.65;3.78;;;;;;;;;;5022138;28;20041;-61
2023/03/23 01:12:42;;;;;;;8.90;3.70;;;;;;;;;;5020883;28;20032;-56
2023/03/23 01:15:08;;;;;;;7.50;3.40;;;;;;;;;;5023167;28;20560;-60
2023/03/23 01:17:33;;;;;;;7.18;3.15;;;;;;;;;;5023155;28;20037;-61
2023/03/23 01:19:58;;;;;;;7.95;4.18;;;;;;;;;;5024084;28;20068;-58
2023/03/23 01:22:24;;;;;;;10.27;4.15;;;;;;;;;;5021367;28;20070;-59
2023/03/23 01:24:49;;;;;;;13.80;6.07;;;;;;;;;;5022486;28;20029;-60
2023/03/23 01:27:15;;;;;;;9.70;5.45;;;;;;;;;;5018985;28;20060;-58
2023/03/23 01:29:40;;;;;;;10.00;5.97;;;;;;;;;;5020492;28;20041;-55
2023/03/23 01:32:06;;;;;;;14.43;5.50;;;;;;;;;;5022287;28;20037;-59
2023/03/23 01:34:31;;;;;;;9.75;5.88;;;;;;;;;;5021628;28;20580;-57
2023/03/23 01:36:57;;;;;;;10.80;5.90;;;;;;;;;;5017509;28;20120;-53
2023/03/23 01:39:23;;;;;;;10.95;5.45;;;;;;;;;;5009833;28;20021;-56
2023/03/23 01:41:48;;;;;;;11.38;5.40;;;;;;;;;;5022024;28;20478;-60
2023/03/23 01:44:18;;;;;;;10.65;5.70;;;;;;;;;;5023223;28;20044;-55
2023/03/23 01:46:54;;;;;;;10.18;5.22;;;;;;;;;;5020650;28;20542;-58
2023/03/23 01:49:26;;;;;;;12.93;6.60;;;;;;;;;;5024191;28;20070;-59
2023/03/23 01:51:55;;;;;;;10.57;6.07;;;;;;;;;;5019485;28;20025;-57
2023/03/23 01:54:22;;;;;;;9.52;5.50;;;;;;;;;;5016949;28;20037;-56
2023/03/23 01:56:59;;;;;;;9.60;5.43;;;;;;;;;;5020232;28;20037;-59
2023/03/23 01:59:25;;;;;;;9.32;5.45;;;;;;;;;;5011873;28;20048;-54
2023/03/23 02:02:04;;;;;;;7.68;5.43;;;;;;;;;;5030138;28;20040;-60
2023/03/23 02:04:31;;;;;;;9.25;5.00;;;;;;;;;;5020264;28;20030;-59
2023/03/23 02:06:57;;;;;;;8.35;4.97;;;;;;;;;;5013814;28;20099;-59
2023/03/23 02:09:25;;;;;;;8.40;4.63;;;;;;;;;;5018936;28;20136;-58
2023/03/23 02:11:52;;;;;;;13.23;5.13;;;;;;;;;;5019450;28;20081;-62
2023/03/23 02:14:18;;;;;;;7.88;4.47;;;;;;;;;;5007394;28;20049;-59
2023/03/23 02:16:45;;;;;;;8.30;4.07;;;;;;;;;;5019342;28;20132;-59
2023/03/23 02:19:29;;;;;;;9.23;4.03;;;;;;;;;;5025164;28;20474;-60
2023/03/23 02:22:12;;;;;;;6.53;3.33;;;;;;;;;;5010857;28;20123;-66
2023/03/23 02:24:43;;;;;;;7.13;3.45;;;;;;;;;;5036130;28;20037;-60
2023/03/23 02:27:21;;;;;;;7.68;3.83;;;;;;;;;;5029282;28;20080;-64
2023/03/23 02:30:05;;;;;;;9.50;4.20;;;;;;;;;;5020050;28;20037;-58
2023/03/23 02:32:40;;;;;;;7.90;4.00;;;;;;;;;;5022078;28;20578;-60
2023/03/23 02:35:19;;;;;;;8.50;3.78;;;;;;;;;;5036924;28;20033;-61
2023/03/23 02:37:48;;;;;;;7.38;3.47;;;;;;;;;;5035895;28;20033;-60
2023/03/23 02:40:19;;;;;;;7.10;3.38;;;;;;;;;;5023160;28;20371;-58
2023/03/23 02:42:47;;;;;;;10.50;3.25;;;;;;;;;;5022817;28;20029;-52
2023/03/23 02:45:13;;;;;;;10.27;3.58;;;;;;;;;;5022901;28;20045;-57
2023/03/23 02:47:40;;;;;;;7.38;3.10;;;;;;;;;;5024426;28;20029;-61
2023/03/23 02:50:08;;;;;;;5.63;2.90;;;;;;;;;;5033563;28;20037;-56
2023/03/23 02:52:36;;;;;;;7.78;2.95;;;;;;;;;;5019667;28;20744;-55
2023/03/23 02:55:02;;;;;;;5.50;2.78;;;;;;;;;;5033177;28;20170;-59
2023/03/23 02:57:28;;;;;;;4.90;2.58;;;;;;;;;;5026420;28;20045;-60
2023/03/23 02:59:55;;;;;;;5.53;2.15;;;;;;;;;;5024935;28;20075;-60
2023/03/23 03:02:23;;;;;;;5.18;2.20;;;;;;;;;;5022367;28;20029;-58
2023/03/23 03:04:48;;;;;;;;;;;;;;;;;;5022835;28;20466;-58
2023/03/23 03:07:26;;;;;;;4.30;2.10;;;;;;;;;;5021231;28;19924;-59
2023/03/23 03:10:00;;;;;;;4.38;2.47;;;;;;;;;;5015809;28;20040;-59
2023/03/23 03:12:25;;;;;;;4.57;2.20;;;;;;;;;;5015921;28;20098;-59
2023/03/23 03:15:00;;;;;;;4.97;2.30;;;;;;;;;;5026385;28;20478;-54
2023/03/23 03:17:26;;;;;;;4.10;2.22;;;;;;;;;;5031915;28;20036;-58
2023/03/23 03:19:57;;;;;;;3.50;2.00;;;;;;;;;;5039273;28;20129;-61
2023/03/23 03:22:23;;;;;;;5.07;2.10;;;;;;;;;;5025368;28;20352;-61
2023/03/23 03:24:49;;;;;;;3.58;2.17;;;;;;;;;;5020871;28;20022;-57
2023/03/23 03:27:16;;;;;;;3.83;2.03;;;;;;;;;;5021805;28;20037;-57
2023/03/23 03:29:54;;;;;;;3.83;2.05;;;;;;;;;;5024030;28;20040;-55
2023/03/23 03:32:22;;;;;;;3.72;2.00;;;;;;;;;;5038946;28;20091;-56
2023/03/23 03:34:50;;;;;;;4.18;2.20;;;;;;;;;;5040612;28;20608;-55
2023/03/23 03:37:16;;;;;;;4.25;2.30;;;;;;;;;;5020851;28;20037;-60
2023/03/23 03:39:41;;;;;;;3.70;2.08;;;;;;;;;;5037542;28;20021;-56
2023/03/23 03:42:09;;;;;;;3.53;2.10;;;;;;;;;;5024597;28;20037;-58
2023/03/23 03:44:34;;;;;;;3.40;2.10;;;;;;;;;;5024749;28;20409;-59
2023/03/23 03:47:00;;;;;;;4.15;2.13;;;;;;;;;;5026021;28;20070;-55
2023/03/23 03:49:26;;;;;;;4.20;1.85;;;;;;;;;;5022132;28;20134;-60
2023/03/23 03:51:52;;;;;;;3.97;2.05;;;;;;;;;;5030513;28;20037;-60
2023/03/23 03:54:22;;;;;;;4.15;2.10;;;;;;;;;;5020774;28;20029;-62
2023/03/23 03:56:48;;;;;;;4.57;2.30;;;;;;;;;;5022708;28;20037;-57
2023/03/23 03:59:32;;;;;;;5.07;2.30;;;;;;;;;;5022082;28;20385;-55
2023/03/23 04:02:23;;;;;;;5.28;2.10;;;;;;;;;;5021445;28;20045;-57
2023/03/23 04:04:52;;;;;;;3.97;2.00;;;;;;;;;;5022702;28;20599;-58
2023/03/23 04:07:18;;;;;;;3.63;2.17;;;;;;;;;;5021794;28;20041;-58
2023/03/23 04:09:46;;;;;;;6.53;2.15;;;;;;;;;;5023346;28;20371;-61
2023/03/23 04:12:12;;;;;;;3.75;2.25;;;;;;;;;;5038206;28;20513;-58
2023/03/23 04:14:55;;;;;;;4.40;2.10;;;;;;;;;;5023989;28;20852;-57
2023/03/23 04:17:25;;;;;;;;;;;;;;;;;;5023245;28;20124;-57
2023/03/23 04:19:51;;;;;;;3.28;1.80;;;;;;;;;;5021482;28;19912;-58
2023/03/23 04:22:16;;;;;;;3.70;2.15;;;;;;;;;;5021584;28;20079;-58
2023/03/23 04:24:42;;;;;;;3.70;2.10;;;;;;;;;;5022146;28;20036;-55
2023/03/23 04:27:13;;;;;;;3.63;2.05;;;;;;;;;;5022131;28;20079;-58
2023/03/23 04:29:39;;;;;;;4.87;2.30;;;;;;;;;;5019767;28;20044;-58
2023/03/23 04:32:33;;;;;;;2.97;1.95;;;;;;;;;;5021770;28;20138;-60
2023/03/23 04:34:59;;;;;;;6.63;2.10;;;;;;;;;;5025064;28;20504;-57
2023/03/23 04:37:30;;;;;;;4.57;2.08;;;;;;;;;;5007715;28;20037;-60
2023/03/23 04:40:01;;;;;;;3.25;2.08;;;;;;;;;;5020685;28;20076;-60
2023/03/23 04:42:28;;;;;;;3.92;2.20;;;;;;;;;;5036212;28;20025;-59
2023/03/23 04:45:21;;;;;;;4.97;2.38;;;;;;;;;;5020223;28;20563;-58
2023/03/23 04:47:57;;;;;;;3.90;2.10;;;;;;;;;;5020415;28;20045;-56
2023/03/23 04:50:32;;;;;;;2.65;1.95;;;;;;;;;;5036842;28;20046;-61
2023/03/23 04:53:05;;;;;;;7.00;2.20;;;;;;;;;;5020219;28;20494;-55
2023/03/23 04:55:35;;;;;;;4.95;2.15;;;;;;;;;;5020141;28;20083;-62
2023/03/23 04:58:05;;;;;;;3.45;2.15;;;;;;;;;;5023560;28;20030;-57
2023/03/23 05:00:43;;;;;;;5.25;2.33;;;;;;;;;;5028760;28;20116;-58
2023/03/23 05:03:16;;;;;;;4.13;2.35;;;;;;;;;;5021602;28;20037;-57
2023/03/23 05:05:41;;;;;;;3.20;1.83;;;;;;;;;;5038280;28;20029;-56
2023/03/23 05:08:07;;;;;;;3.90;1.98;;;;;;;;;;5007379;28;20044;-58
2023/03/23 05:10:36;;;;;;;4.05;2.20;;;;;;;;;;5023230;28;20127;-58
2023/03/23 05:13:06;;;;;;;4.00;1.80;;;;;;;;;;5037111;28;20033;-60
2023/03/23 05:15:32;;;;;;;3.80;1.90;;;;;;;;;;5021502;28;20545;-57
2023/03/23 05:17:58;;;;;;;3.67;2.05;;;;;;;;;;5027137;28;20068;-57
2023/03/23 05:20:24;;;;;;;3.65;2.20;;;;;;;;;;5020133;28;20399;-57
2023/03/23 05:22:53;;;;;;;4.30;2.60;;;;;;;;;;5023372;28;20029;-60
2023/03/23 05:25:26;;;;;;;4.65;2.00;;;;;;;;;;5020471;28;20045;-58
2023/03/23 05:28:00;;;;;;;6.55;2.40;;;;;;;;;;5022247;28;20037;-56
2023/03/23 05:30:45;;;;;;;;;;;;;;;;;;5019904;28;20850;-58
2023/03/23 05:33:12;;;;;;;4.05;2.47;;;;;;;;;;5020131;28;20051;-56
2023/03/23 05:35:58;;;;;;;3.88;2.30;;;;;;;;;;5016819;28;20084;-58
2023/03/23 05:38:29;;;;;;;6.85;2.33;;;;;;;;;;5019458;28;20037;-58
2023/03/23 05:40:59;;;;;;;3.47;2.30;;;;;;;;;;5017563;28;20040;-55
2023/03/23 05:43:27;;;;;;;4.78;2.47;;;;;;;;;;5016754;28;20121;-62
2023/03/23 05:46:08;;;;;;;3.50;2.20;;;;;;;;;;5019836;28;20131;-58
2023/03/23 05:48:34;;;;;;;3.30;2.08;;;;;;;;;;5020619;28;20029;-59
2023/03/23 05:51:01;;;;;;;4.72;2.40;;;;;;;;;;5018205;28;20176;-58
2023/03/23 05:53:29;;;;;;;;;;;;;;;;;;5020222;28;20119;-56
2023/03/23 05:55:57;;;;;;;5.97;2.70;;;;;;;;;;5002959;28;19944;-58
2023/03/23 05:58:37;;;;;;;6.28;2.50;;;;;;;;;;5023956;28;20086;-61
2023/03/23 06:01:07;;;;;;;3.40;2.30;;;;;;;;;;5016322;28;20041;-59
2023/03/23 06:03:32;;;;;;;3.47;2.10;;;;;;;;;;4998400;28;20061;-58
2023/03/23 06:06:04;;;;;;;7.20;3.67;;;;;;;;;;5018664;28;20048;-60
2023/03/23 06:08:42;;;;;;;8.13;3.70;;;;;;;;;;5033371;28;20487;-57
2023/03/23 06:11:08;;;;;;;5.32;2.97;;;;;;;;;;5016969;28;20037;-61
2023/03/23 06:13:40;;;;;;;7.20;3.20;;;;;;;;;;5010054;28;20030;-57
2023/03/23 06:16:08;;;;;;;6.10;2.97;;;;;;;;;;5038424;28;20036;-61
2023/03/23 06:18:52;;;;;;;6.43;3.00;;;;;;;;;;5020516;28;20029;-60
2023/03/23 06:21:28;;;;;;;6.18;2.78;;;;;;;;;;5020019;28;20029;-60
2023/03/23 06:24:14;;;;;;;5.50;2.58;;;;;;;;;;5013112;28;20128;-58
2023/03/23 06:26:41;;;;;;;6.75;2.90;;;;;;;;;;5006677;28;20043;-57
2023/03/23 06:29:11;;;;;;;7.03;3.03;;;;;;;;;;5018653;28;20052;-61
2023/03/23 06:31:44;;;;;;;6.70;2.92;;;;;;;;;;5037819;28;20028;-60
2023/03/23 06:34:11;;;;;;;4.60;2.60;;;;;;;;;;5019815;28;20041;-60
2023/03/23 06:36:55;;;;;;;5.72;3.10;;;;;;;;;;5024315;28;20094;-59
2023/03/23 06:39:34;;;;;;;5.00;2.60;;;;;;;;;;5020048;28;20037;-57
2023/03/23 06:42:18;;;;;;;6.07;2.75;;;;;;;;;;5024071;28;20044;-58
2023/03/23 06:44:49;;;;;;;5.07;2.60;;;;;;;;;;5026243;28;20074;-58
2023/03/23 06:47:15;;;;;;;6.97;2.80;;;;;;;;;;5026308;28;20070;-60
2023/03/23 06:49:45;;;;;;;5.53;3.05;;;;;;;;;;5025952;28;20036;-57
2023/03/23 06:52:18;;;;;;;8.63;3.97;;;;;;;;;;5026730;28;20613;-59
2023/03/23 06:54:43;;;;;;;8.13;3.92;;;;;;;;;;5027574;28;20037;-57
2023/03/23 06:57:11;;;;;;;6.20;4.10;;;;;;;;;;5035691;28;20056;-59
2023/03/23 06:59:36;;;;;;;6.97;3.92;;;;;;;;;;5026679;28;20025;-54
2023/03/23 07:02:02;;;;;;;7.07;3.55;;;;;;;;;;5035530;28;20033;-58
2023/03/23 07:04:28;;;;;;;8.80;3.50;;;;;;;;;;5026863;28;20030;-58
2023/03/23 07:07:03;;;;;;;7.45;3.20;;;;;;;;;;5022916;28;20497;-58
2023/03/23 07:09:35;;;;;;;7.28;3.08;;;;;;;;;;5026137;28;20083;-59
2023/03/23 07:12:00;;;;;;;5.05;3.17;;;;;;;;;;5026664;28;20042;-57
2023/03/23 07:14:34;;;;;;;5.65;3.03;;;;;;;;;;5032469;28;20049;-57
2023/03/23 07:17:00;;;;;;;6.03;3.20;;;;;;;;;;5016088;28;20085;-59
2023/03/23 07:19:26;;;;;;;5.55;2.88;;;;;;;;;;5025389;28;20063;-57
2023/03/23 07:21:52;;;;;;;5.97;2.95;;;;;;;;;;5025401;28;20057;-57
2023/03/23 07:24:20;;;;;;;7.22;2.78;;;;;;;;;;5009084;28;20425;-60
2023/03/23 07:26:59;;;;;;;7.38;2.88;;;;;;;;;;5023235;28;20041;-57
2023/03/23 07:29:26;;;;;;;4.93;2.80;;;;;;;;;;5010212;28;20056;-57
2023/03/23 07:32:01;;;;;;;5.32;2.80;;;;;;;;;;5022571;28;20029;-58
2023/03/23 07:34:27;;;;;;;5.10;3.42;;;;;;;;;;5026647;28;20111;-56
2023/03/23 07:37:02;;;;;;;4.85;3.00;;;;;;;;;;5004845;28;20597;-61
2023/03/23 07:39:29;;;;;;;5.28;2.58;;;;;;;;;;5012085;28;20112;-59
2023/03/23 07:41:57;;;;;;;4.32;2.53;;;;;;;;;;5023945;28;20041;-56
2023/03/23 07:44:47;;;;;;;4.65;2.50;;;;;;;;;;5020456;28;20159;-56
2023/03/23 07:47:13;;;;;;;7.97;2.42;;;;;;;;;;5024432;28;20117;-54
2023/03/23 07:49:39;;;;;;;4.95;2.22;;;;;;;;;;5027773;28;20048;-55
2023/03/23 07:52:36;;;;;;;7.72;2.80;;;;;;;;;;5026453;28;20029;-57
2023/03/23 07:55:04;;;;;;;4.57;2.65;;;;;;;;;;5023377;28;20227;-56
2023/03/23 07:57:53;;;;;;;4.68;2.63;;;;;;;;;;5022997;28;20041;-60
2023/03/23 08:00:19;;;;;;;5.10;2.50;;;;;;;;;;5024664;28;20037;-61
2023/03/23 08:02:46;;;;;;;6.50;2.50;;;;;;;;;;5024037;28;20474;-57
2023/03/23 08:05:26;;;;;;;7.28;3.13;;;;;;;;;;5030483;28;20096;-58
2023/03/23 08:08:10;;;;;;;4.13;2.60;;;;;;;;;;5026795;28;20447;-57
2023/03/23 08:10:54;;;;;;;6.25;2.70;;;;;;;;;;5025478;28;20155;-57
2023/03/23 08:13:38;;;;;;;9.75;2.83;;;;;;;;;;5025006;28;20084;-57
2023/03/23 08:16:15;;;;;;;;;;;;;;;;;;5024195;28;20038;-60
2023/03/23 08:19:00;;;;;;;6.10;2.90;;;;;;;;;;5026179;28;19997;-58
2023/03/23 08:21:44;;;;;;;6.18;2.60;;;;;;;;;;5025521;28;20060;-58
2023/03/23 08:24:44;;;;;;;5.13;2.38;;;;;;;;;;4996698;28;20049;-59
2023/03/23 08:27:13;;;;;;;7.07;2.70;;;;;;;;;;5019895;28;20052;-60
2023/03/23 08:29:53;;;;;;;4.55;2.30;;;;;;;;;;5023872;28;20041;-57
2023/03/23 08:32:49;;;;;;;5.32;2.30;;;;;;;;;;5023873;28;20032;-59
2023/03/23 08:35:34;;;;;;;7.63;2.30;;;;;;;;;;5012684;28;20030;-60
2023/03/23 08:38:32;;;;;;;3.92;2.20;;;;;;;;;;5018352;28;20047;-57
2023/03/23 08:41:17;;;;;;;7.50;2.63;;;;;;;;;;5022867;28;20072;-59
2023/03/23 08:43:59;;;;;;;5.32;2.50;;;;;;;;;;5022854;28;20130;-54
2023/03/23 08:46:41;;;;;;;5.70;2.30;;;;;;;;;;5021212;28;20044;-58
2023/03/23 08:49:27;;;;;;;6.78;2.35;;;;;;;;;;5029688;28;20045;-57
2023/03/23 08:52:13;;;;;;;4.50;2.20;;;;;;;;;;5023585;28;20068;-55
2023/03/23 08:54:57;;;;;;;3.72;2.40;;;;;;;;;;5024712;28;20052;-56
2023/03/23 08:57:32;;;;;;;3.83;2.40;;;;;;;;;;5009167;28;20037;-57
2023/03/23 09:00:17;;;;;;;6.15;2.40;;;;;;;;;;5026162;28;20031;-58
2023/03/23 09:02:56;;;;;;;4.80;2.35;;;;;;;;;;5029904;28;20029;-57
2023/03/23 09:05:26;;;;;;;4.50;2.17;;;;;;;;;;5023275;28;20064;-55
2023/03/23 09:08:03;;;;;;;5.35;2.40;;;;;;;;;;5022930;28;20044;-58
2023/03/23 09:10:30;;;;;;;4.22;2.22;;;;;;;;;;5025433;28;20045;-56
2023/03/23 09:12:55;;;;;;;5.35;2.60;;;;;;;;;;5024545;28;20037;-58
2023/03/23 09:15:21;;;;;;;4.18;2.30;;;;;;;;;;5022258;28;20053;-57
2023/03/23 09:17:47;;;;;;;5.68;2.30;;;;;;;;;;5029940;28;20041;-52
2023/03/23 09:20:14;;;;;;;5.07;2.65;;;;;;;;;;5021033;28;20030;-57
2023/03/23 09:22:44;;;;;;;7.53;2.50;;;;;;;;;;5023541;28;20037;-53
2023/03/23 09:25:11;;;;;;;4.88;2.50;;;;;;;;;;5021952;28;20037;-57
2023/03/23 09:27:36;;;;;;;;;;;;;;;;;;5023224;28;20457;-58
2023/03/23 09:30:06;;;;;;;4.70;2.60;;;;;;;;;;5022648;28;19917;-57
2023/03/23 09:32:34;;;;;;;4.13;2.65;;;;;;;;;;5022990;28;20052;-56
2023/03/23 09:35:00;;;;;;;5.75;2.40;;;;;;;;;;5023839;28;20116;-58
2023/03/23 09:37:25;;;;;;;4.20;2.45;;;;;;;;;;5024287;28;20117;-52
2023/03/23 09:39:51;;;;;;;8.38;2.70;;;;;;;;;;5021076;28;20079;-55
2023/03/23 09:42:36;;;;;;;4.32;2.55;;;;;;;;;;5023772;28;20514;-57
2023/03/23 09:45:06;;;;;;;3.97;2.38;;;;;;;;;;5021590;28;20033;-58
2023/03/23 09:47:38;;;;;;;4.05;2.25;;;;;;;;;;5023633;28;20134;-54
2023/03/23 09:50:18;;;;;;;4.18;2.25;;;;;;;;;;5030240;28;20095;-58
2023/03/23 09:52:55;;;;;;;5.22;2.20;;;;;;;;;;5024174;28;20512;-57
2023/03/23 09:55:21;;;;;;;4.47;2.22;;;;;;;;;;5024635;28;20584;-57
2023/03/23 09:57:55;;;;;;;6.70;2.40;;;;;;;;;;5025505;28;20072;-53
2023/03/23 10:00:24;;;;;;;4.00;2.00;;;;;;;;;;5026287;28;20124;-55
2023/03/23 10:02:53;;;;;;;4.32;2.40;;;;;;;;;;5027997;28;20542;-59
2023/03/23 10:05:18;;;;;;;5.57;2.35;;;;;;;;;;5028053;28;20128;-58
2023/03/23 10:07:44;;;;;;;5.82;2.33;;;;;;;;;;5026819;28;20041;-56
2023/03/23 10:10:13;;;;;;;6.53;2.55;;;;;;;;;;5027399;28;20486;-54
2023/03/23 10:13:01;;;;;;;6.90;2.17;;;;;;;;;;5024493;28;20449;-56
2023/03/23 10:15:31;;;;;;;6.55;2.30;;;;;;;;;;5032818;28;20048;-56
2023/03/23 10:18:23;;;;;;;4.22;2.30;;;;;;;;;;5027130;28;20028;-53
2023/03/23 10:20:51;;;;;;;3.88;2.20;;;;;;;;;;5026937;28;20037;-58
2023/03/23 10:23:19;;;;;;;5.75;2.38;;;;;;;;;;5028406;28;20041;-57
2023/03/23 10:25:51;;;;;;;3.85;2.20;;;;;;;;;;5029310;28;20091;-58
2023/03/23 10:28:48;;;;;;;4.18;2.15;;;;;;;;;;5026964;28;20068;-56
2023/03/23 10:31:19;;;;;;;3.33;2.10;;;;;;;;;;5014654;28;20435;-58
2023/03/23 10:33:46;;;;;;;4.82;2.20;;;;;;;;;;5039329;28;20511;-56
2023/03/23 10:36:31;;;;;;;7.30;2.10;;;;;;;;;;5026392;28;20091;-55
2023/03/23 10:39:00;;;;;;;3.60;2.10;;;;;;;;;;5027313;28;20041;-56
2023/03/23 10:41:26;;;;;;;10.35;2.50;;;;;;;;;;5027831;28;20056;-54
2023/03/23 10:43:53;;;;;;;4.25;2.20;;;;;;;;;;5030294;28;20679;-58
2023/03/23 10:46:18;;;;;;;;;;;;;;;;;;5028126;28;20108;-57
2023/03/23 10:48:43;;;;;;;4.13;2.10;;;;;;;;;;5027594;28;19940;-56
2023/03/23 10:51:11;;;;;;;5.68;1.73;;;;;;;;;;5028174;28;20079;-58
2023/03/23 10:53:39;;;;;;;9.60;1.95;;;;;;;;;;5028406;28;20048;-58
2023/03/23 10:56:05;;;;;;;9.07;2.10;;;;;;;;;;5026774;28;20037;-54
2023/03/23 10:58:32;;;;;;;5.25;2.25;;;;;;;;;;5029815;28;20035;-57
2023/03/23 11:00:58;;;;;;;4.57;2.10;;;;;;;;;;5026340;28;20042;-58
2023/03/23 11:03:32;;;;;;;3.92;1.98;;;;;;;;;;5024504;28;20037;-59
2023/03/23 11:06:09;;;;;;;6.15;2.20;;;;;;;;;;5027064;28;20065;-57
2023/03/23 11:08:46;;;;;;;6.70;2.17;;;;;;;;;;5025466;28;20045;-56
2023/03/23 11:11:16;;;;;;;4.72;2.17;;;;;;;;;;5025479;28;20137;-57
2023/03/23 11:13:45;;;;;;;5.93;2.17;;;;;;;;;;5027884;28;20911;-56
2023/03/23 11:16:22;;;;;;;3.35;1.83;;;;;;;;;;5025978;28;20037;-55
2023/03/23 11:18:47;;;;;;;5.22;1.90;;;;;;;;;;5024787;28;20033;-56
2023/03/23 11:21:13;;;;;;;7.65;2.38;;;;;;;;;;5023569;28;20407;-59
2023/03/23 11:23:43;;;;;;;3.97;1.70;;;;;;;;;;5025177;28;20039;-57
2023/03/23 11:26:08;;;;;;;3.80;2.20;;;;;;;;;;5025318;28;20303;-56
2023/03/23 11:28:35;;;;;;;2.75;1.80;;;;;;;;;;5031860;28;20061;-56
2023/03/23 11:31:02;;;;;;;3.42;2.00;;;;;;;;;;5024969;28;20044;-57
2023/03/23 11:33:35;;;;;;;2.83;1.80;;;;;;;;;;5024848;28;20896;-54
2023/03/23 11:36:01;;;;;;;2.70;1.80;;;;;;;;;;5024991;28;20520;-55
2023/03/23 11:38:27;;;;;;;6.65;2.15;;;;;;;;;;5023815;28;20033;-55
2023/03/23 11:40:53;;;;;;;2.97;1.83;;;;;;;;;;5025997;28;20473;-54
2023/03/23 11:43:21;;;;;;;2.88;1.90;;;;;;;;;;5025156;28;20064;-58
2023/03/23 11:45:49;;;;;;;3.33;1.80;;;;;;;;;;5027536;28;20140;-59
2023/03/23 11:48:22;;;;;;;3.75;2.10;;;;;;;;;;5023820;28;20069;-58
2023/03/23 11:50:59;;;;;;;3.50;2.00;;;;;;;;;;5023460;28;20045;-59
2023/03/23 11:53:25;;;;;;;4.82;1.98;;;;;;;;;;5026648;28;20030;-55
2023/03/23 11:56:06;;;;;;;5.13;2.00;;;;;;;;;;5026867;28;20033;-60
2023/03/23 11:58:32;;;;;;;3.72;2.05;;;;;;;;;;5040493;28;20502;-55
2023/03/23 12:00:58;;;;;;;3.22;2.05;;;;;;;;;;5024582;28;20474;-57
2023/03/23 12:03:26;;;;;;;4.45;2.00;;;;;;;;;;5026927;28;20041;-53
2023/03/23 12:05:51;;;;;;;4.20;2.08;;;;;;;;;;5026564;28;20033;-59
2023/03/23 12:08:26;;;;;;;5.30;1.95;;;;;;;;;;5025843;28;20422;-57
2023/03/23 12:11:01;;;;;;;2.85;2.00;;;;;;;;;;5024905;28;20029;-59
2023/03/23 12:13:29;;;;;;;4.65;2.30;;;;;;;;;;5024943;28;20243;-58
2023/03/23 12:15:55;;;;;;;6.80;2.10;;;;;;;;;;5023893;28;20120;-59
2023/03/23 12:18:24;;;;;;;3.20;1.95;;;;;;;;;;5025715;28;20488;-58
2023/03/23 12:20:52;;;;;;;5.80;2.10;;;;;;;;;;5025512;28;20044;-59
2023/03/23 12:23:17;;;;;;;4.22;2.00;;;;;;;;;;5040448;28;20429;-58
2023/03/23 12:26:08;;;;;;;5.30;2.15;;;;;;;;;;5027051;28;20462;-59
2023/03/23 12:28:36;;;;;;;3.75;2.20;;;;;;;;;;5024577;28;20037;-58
2023/03/23 12:31:01;;;;;;;4.13;2.00;;;;;;;;;;5025724;28;20100;-58
2023/03/23 12:33:27;;;;;;;4.18;2.20;;;;;;;;;;5024841;28;20045;-59
2023/03/23 12:36:10;;;;;;;2.95;1.75;;;;;;;;;;5013177;28;20410;-59
2023/03/23 12:38:42;;;;;;;2.97;1.90;;;;;;;;;;5025433;28;20033;-58
2023/03/23 12:41:07;;;;;;;5.43;2.00;;;;;;;;;;5025038;28;20044;-61
2023/03/23 12:43:39;;;;;;;4.03;2.20;;;;;;;;;;5026303;28;20029;-61
2023/03/23 12:46:10;;;;;;;3.38;2.05;;;;;;;;;;5040049;28;20033;-58
2023/03/23 12:48:41;;;;;;;4.10;2.03;;;;;;;;;;5023553;28;20065;-59
2023/03/23 12:51:12;;;;;;;7.53;2.15;;;;;;;;;;5024794;28;20037;-60
2023/03/23 12:53:38;;;;;;;2.97;1.73;;;;;;;;;;5024827;28;20110;-58
2023/03/23 12:56:16;;;;;;;4.93;2.10;;;;;;;;;;5025975;28;20352;-58
2023/03/23 12:58:44;;;;;;;4.30;2.10;;;;;;;;;;5025537;28;20033;-57
2023/03/23 13:01:21;;;;;;;4.97;1.90;;;;;;;;;;5024707;28;20026;-60
2023/03/23 13:03:47;;;;;;;;;;;;;;;;;;5023374;28;20032;-61
2023/03/23 13:06:19;;;;;;;3.55;2.20;;;;;;;;;;5024514;28;19912;-60
2023/03/23 13:08:53;;;;;;;4.22;2.17;;;;;;;;;;5023884;28;20099;-60
2023/03/23 13:11:38;;;;;;;5.90;2.40;;;;;;;;;;5025876;28;20039;-59
2023/03/23 13:14:21;;;;;;;4.10;2.00;;;;;;;;;;5024938;28;20053;-60
2023/03/23 13:17:05;;;;;;;4.25;2.28;;;;;;;;;;5025484;28;20036;-58
2023/03/23 13:19:41;;;;;;;7.05;2.20;;;;;;;;;;5025059;28;20104;-59
2023/03/23 13:22:13;;;;;;;3.60;1.90;;;;;;;;;;5027796;28;20037;-60
2023/03/23 13:24:41;;;;;;;4.00;2.03;;;;;;;;;;5023706;28;20033;-60
2023/03/23 13:27:08;;;;;;;5.15;2.10;;;;;;;;;;5024966;28;20026;-61
2023/03/23 13:29:33;;;;;;;;;;;;;;;;;;5024644;28;20446;-58
2023/03/23 13:32:19;;;;;;;4.53;2.10;;;;;;;;;;5025338;28;20413;-59
2023/03/23 13:34:46;;;;;;;4.63;2.33;;;;;;;;;;5023515;28;20045;-60
2023/03/23 13:37:20;;;;;;;3.55;1.95;;;;;;;;;;5023654;28;20124;-62
2023/03/23 13:39:55;;;;;;;4.88;2.03;;;;;;;;;;5023087;28;20469;-61
2023/03/23 13:42:24;;;;;;;5.53;2.63;;;;;;;;;;5025778;28;20037;-60
2023/03/23 13:44:52;;;;;;;5.13;2.40;;;;;;;;;;5023934;28;20092;-60
2023/03/23 13:47:20;;;;;;;5.47;2.38;;;;;;;;;;5025298;28;20064;-59
2023/03/23 13:49:49;;;;;;;4.30;2.65;;;;;;;;;;5029812;28;20038;-59
2023/03/23 13:52:22;;;;;;;5.13;2.50;;;;;;;;;;5023096;28;20119;-60
2023/03/23 13:54:50;;;;;;;4.28;2.38;;;;;;;;;;5024218;28;20056;-60
2023/03/23 13:57:20;;;;;;;4.25;2.47;;;;;;;;;;5013199;28;20050;-58
2023/03/23 13:59:47;;;;;;;8.13;2.60;;;;;;;;;;5023557;28;20037;-58
2023/03/23 14:02:31;;;;;;;5.47;2.33;;;;;;;;;;5023371;28;20033;-58
2023/03/23 14:04:57;;;;;;;3.25;2.22;;;;;;;;;;5023852;28;20114;-58
2023/03/23 14:07:24;;;;;;;4.40;2.50;;;;;;;;;;5023384;28;20144;-61
2023/03/23 14:09:50;;;;;;;4.85;2.42;;;;;;;;;;5023926;28;20049;-59
2023/03/23 14:12:15;;;;;;;7.32;2.80;;;;;;;;;;5023394;28;20088;-61
2023/03/23 14:14:42;;;;;;;4.28;2.72;;;;;;;;;;5021377;28;20033;-59
2023/03/23 14:17:15;;;;;;;6.10;2.40;;;;;;;;;;5022814;28;20049;-62
2023/03/23 14:19:42;;;;;;;5.88;2.60;;;;;;;;;;5023820;28;20091;-59
2023/03/23 14:22:40;;;;;;;4.82;2.63;;;;;;;;;;5019481;28;20026;-57
2023/03/23 14:25:09;;;;;;;4.85;2.58;;;;;;;;;;5021039;28;20068;-56
2023/03/23 14:27:34;;;;;;;5.30;2.78;;;;;;;;;;5021528;28;20144;-55
2023/03/23 14:30:00;;;;;;;5.05;2.78;;;;;;;;;;5012463;28;20141;-60
2023/03/23 14:32:27;;;;;;;4.78;2.40;;;;;;;;;;5022209;28;20053;-59
2023/03/23 14:34:53;;;;;;;5.70;2.60;;;;;;;;;;5027007;28;20520;-58
2023/03/23 14:37:20;;;;;;;5.25;2.60;;;;;;;;;;5027706;28;20049;-58
2023/03/23 14:39:47;;;;;;;5.75;2.67;;;;;;;;;;5024098;28;20108;-58
2023/03/23 14:42:14;;;;;;;8.35;2.70;;;;;;;;;;5027004;28;20565;-58
2023/03/23 14:44:47;;;;;;;5.28;2.65;;;;;;;;;;5027329;28;20030;-54
2023/03/23 14:47:19;;;;;;;4.32;2.53;;;;;;;;;;5024948;28;20408;-57
2023/03/23 14:49:45;;;;;;;4.78;2.75;;;;;;;;;;5027903;28;20037;-58
2023/03/23 14:52:11;;;;;;;3.87;2.23;;;;;;;;;;5026774;28;20482;-58
2023/03/23 14:54:38;;;;;;;4.63;2.50;;;;;;;;;;5032682;28;20089;-60
2023/03/23 14:57:32;;;;;;;6.03;2.95;;;;;;;;;;5026757;28;20037;-59
2023/03/23 14:59:58;;;;;;;3.95;2.60;;;;;;;;;;5015837;28;20542;-59
2023/03/23 15:02:26;;;;;;;7.40;2.70;;;;;;;;;;5028935;28;20108;-58
2023/03/23 15:04:56;;;;;;;3.67;2.40;;;;;;;;;;5026547;28;20035;-59
2023/03/23 15:07:24;;;;;;;4.95;2.60;;;;;;;;;;5027892;28;20064;-58
2023/03/23 15:09:49;;;;;;;4.30;2.60;;;;;;;;;;5027737;28;20207;-61